sensor_id;sensor_type;location;lat;lon;timestamp;temperature;humidity
13494;DHT22;6819;50.886;4.332;2024-02-16T00:01:19;14.10;99.90
13494;DHT22;6819;50.886;4.332;2024-02-16T00:03:45;14.10;99.90
13494;DHT22;6819;50.886;4.332;2024-02-16T00:06:11;14.10;99.90
13494;DHT22;6819;50.886;4.332;2024-02-16T00:08:37;14.10;99.90
13494;DHT22;6819;50.886;4.332;2024-02-16T00:11:07;14.10;99.90
13494;DHT22;6819;50.886;4.332;2024-02-16T00:13:33;14.10;99.90
13494;DHT22;6819;50.886;4.332;2024-02-16T00:15:58;14.10;99.90
13494;DHT22;6819;50.886;4.332;2024-02-16T00:18:24;14.00;99.90
13494;DHT22;6819;50.886;4.332;2024-02-16T00:20:50;14.10;99.90
13494;DHT22;6819;50.886;4.332;2024-02-16T00:23:15;14.10;99.90
13494;DHT22;6819;50.886;4.332;2024-02-16T00:25:41;14.10;99.90
13494;DHT22;6819;50.886;4.332;2024-02-16T00:28:08;14.00;99.90
13494;DHT22;6819;50.886;4.332;2024-02-16T00:30:33;14.00;99.90
13494;DHT22;6819;50.886;4.332;2024-02-16T00:32:59;14.10;99.90
13494;DHT22;6819;50.886;4.332;2024-02-16T00:35:26;14.10;99.90
13494;DHT22;6819;50.886;4.332;2024-02-16T00:37:52;14.10;99.90
13494;DHT22;6819;50.886;4.332;2024-02-16T00:40:17;14.10;99.90
13494;DHT22;6819;50.886;4.332;2024-02-16T00:42:43;14.10;99.90
13494;DHT22;6819;50.886;4.332;2024-02-16T00:45:09;14.10;99.90
13494;DHT22;6819;50.886;4.332;2024-02-16T00:47:34;14.10;99.90
13494;DHT22;6819;50.886;4.332;2024-02-16T00:50:00;14.10;99.90
13494;DHT22;6819;50.886;4.332;2024-02-16T00:52:26;14.00;99.90
13494;DHT22;6819;50.886;4.332;2024-02-16T00:54:52;14.00;99.90
13494;DHT22;6819;50.886;4.332;2024-02-16T00:57:17;14.00;99.90
13494;DHT22;6819;50.886;4.332;2024-02-16T00:59:43;14.10;99.90
13494;DHT22;6819;50.886;4.332;2024-02-16T01:02:08;14.10;99.90
13494;DHT22;6819;50.886;4.332;2024-02-16T01:04:35;14.00;99.90
13494;DHT22;6819;50.886;4.332;2024-02-16T01:07:01;14.00;99.90
13494;DHT22;6819;50.886;4.332;2024-02-16T01:09:27;14.00;99.90
13494;DHT22;6819;50.886;4.332;2024-02-16T01:11:52;14.10;99.90
13494;DHT22;6819;50.886;4.332;2024-02-16T01:14:18;14.00;99.90
13494;DHT22;6819;50.886;4.332;2024-02-16T01:16:45;14.00;99.90
13494;DHT22;6819;50.886;4.332;2024-02-16T01:19:11;14.00;99.90
13494;DHT22;6819;50.886;4.332;2024-02-16T01:21:36;14.00;99.90
13494;DHT22;6819;50.886;4.332;2024-02-16T01:24:02;14.00;99.90
13494;DHT22;6819;50.886;4.332;2024-02-16T01:26:28;14.00;99.90
13494;DHT22;6819;50.886;4.332;2024-02-16T01:28:55;14.00;99.90
13494;DHT22;6819;50.886;4.332;2024-02-16T01:31:20;14.00;99.90
13494;DHT22;6819;50.886;4.332;2024-02-16T01:33:46;14.00;99.90
13494;DHT22;6819;50.886;4.332;2024-02-16T01:36:12;14.10;99.90
13494;DHT22;6819;50.886;4.332;2024-02-16T01:38:37;14.10;99.90
13494;DHT22;6819;50.886;4.332;2024-02-16T01:41:03;14.00;99.90
13494;DHT22;6819;50.886;4.332;2024-02-16T01:43:30;14.00;99.90
13494;DHT22;6819;50.886;4.332;2024-02-16T01:45:56;14.00;99.90
13494;DHT22;6819;50.886;4.332;2024-02-16T01:48:24;14.00;99.90
13494;DHT22;6819;50.886;4.332;2024-02-16T01:50:51;14.00;99.90
13494;DHT22;6819;50.886;4.332;2024-02-16T01:53:17;14.00;99.90
13494;DHT22;6819;50.886;4.332;2024-02-16T01:55:45;14.00;99.90
13494;DHT22;6819;50.886;4.332;2024-02-16T01:58:11;14.00;99.90
13494;DHT22;6819;50.886;4.332;2024-02-16T02:00:37;13.90;99.90
13494;DHT22;6819;50.886;4.332;2024-02-16T02:03:03;14.00;99.90
13494;DHT22;6819;50.886;4.332;2024-02-16T02:05:29;14.00;99.90
13494;DHT22;6819;50.886;4.332;2024-02-16T02:07:54;14.00;99.90
13494;DHT22;6819;50.886;4.332;2024-02-16T02:10:21;14.00;99.90
13494;DHT22;6819;50.886;4.332;2024-02-16T02:12:47;14.00;99.90
13494;DHT22;6819;50.886;4.332;2024-02-16T02:15:13;13.90;99.90
13494;DHT22;6819;50.886;4.332;2024-02-16T02:17:39;13.90;99.90
13494;DHT22;6819;50.886;4.332;2024-02-16T02:20:05;14.00;99.90
13494;DHT22;6819;50.886;4.332;2024-02-16T02:22:34;14.00;99.90
13494;DHT22;6819;50.886;4.332;2024-02-16T02:25:00;14.00;99.90
13494;DHT22;6819;50.886;4.332;2024-02-16T02:27:25;14.00;99.90
13494;DHT22;6819;50.886;4.332;2024-02-16T02:29:51;14.00;99.90
13494;DHT22;6819;50.886;4.332;2024-02-16T02:32:17;14.00;99.90
13494;DHT22;6819;50.886;4.332;2024-02-16T02:34:42;14.00;99.90
13494;DHT22;6819;50.886;4.332;2024-02-16T02:37:09;14.00;99.90
13494;DHT22;6819;50.886;4.332;2024-02-16T02:39:35;14.10;99.90
13494;DHT22;6819;50.886;4.332;2024-02-16T02:42:00;14.00;99.90
13494;DHT22;6819;50.886;4.332;2024-02-16T02:44:26;14.10;99.90
13494;DHT22;6819;50.886;4.332;2024-02-16T02:46:52;14.10;99.90
13494;DHT22;6819;50.886;4.332;2024-02-16T02:49:20;14.10;99.90
13494;DHT22;6819;50.886;4.332;2024-02-16T02:51:46;14.10;99.90
13494;DHT22;6819;50.886;4.332;2024-02-16T02:54:12;14.10;99.90
13494;DHT22;6819;50.886;4.332;2024-02-16T02:56:37;14.20;99.90
13494;DHT22;6819;50.886;4.332;2024-02-16T02:59:03;14.20;99.90
13494;DHT22;6819;50.886;4.332;2024-02-16T03:01:31;14.20;99.90
13494;DHT22;6819;50.886;4.332;2024-02-16T03:03:57;14.20;99.90
13494;DHT22;6819;50.886;4.332;2024-02-16T03:06:23;14.20;99.90
13494;DHT22;6819;50.886;4.332;2024-02-16T03:08:49;14.20;99.90
13494;DHT22;6819;50.886;4.332;2024-02-16T03:11:14;14.20;99.90
13494;DHT22;6819;50.886;4.332;2024-02-16T03:13:40;14.20;99.90
13494;DHT22;6819;50.886;4.332;2024-02-16T03:16:06;14.30;99.90
13494;DHT22;6819;50.886;4.332;2024-02-16T03:18:32;14.20;99.90
13494;DHT22;6819;50.886;4.332;2024-02-16T03:20:58;14.30;99.90
13494;DHT22;6819;50.886;4.332;2024-02-16T03:23:24;14.30;99.90
13494;DHT22;6819;50.886;4.332;2024-02-16T03:25:50;14.30;99.90
13494;DHT22;6819;50.886;4.332;2024-02-16T03:28:16;14.30;99.90
13494;DHT22;6819;50.886;4.332;2024-02-16T03:30:43;14.30;99.90
13494;DHT22;6819;50.886;4.332;2024-02-16T03:33:09;14.30;99.90
13494;DHT22;6819;50.886;4.332;2024-02-16T03:35:35;14.30;99.90
13494;DHT22;6819;50.886;4.332;2024-02-16T03:38:02;14.30;99.90
13494;DHT22;6819;50.886;4.332;2024-02-16T03:40:28;14.20;99.90
13494;DHT22;6819;50.886;4.332;2024-02-16T03:42:54;14.30;99.90
13494;DHT22;6819;50.886;4.332;2024-02-16T03:45:20;14.20;99.90
13494;DHT22;6819;50.886;4.332;2024-02-16T03:47:46;14.20;99.90
13494;DHT22;6819;50.886;4.332;2024-02-16T03:50:16;14.20;99.90
13494;DHT22;6819;50.886;4.332;2024-02-16T03:52:42;14.20;99.90
13494;DHT22;6819;50.886;4.332;2024-02-16T03:55:08;14.30;99.90
13494;DHT22;6819;50.886;4.332;2024-02-16T03:57:34;14.20;99.90
13494;DHT22;6819;50.886;4.332;2024-02-16T04:00:00;14.20;99.90
13494;DHT22;6819;50.886;4.332;2024-02-16T04:02:25;14.30;99.90
13494;DHT22;6819;50.886;4.332;2024-02-16T04:04:51;14.30;99.90
13494;DHT22;6819;50.886;4.332;2024-02-16T04:07:17;14.30;99.90
13494;DHT22;6819;50.886;4.332;2024-02-16T04:09:43;14.30;99.90
13494;DHT22;6819;50.886;4.332;2024-02-16T04:12:08;14.30;99.90
13494;DHT22;6819;50.886;4.332;2024-02-16T04:14:35;14.40;99.90
13494;DHT22;6819;50.886;4.332;2024-02-16T04:17:01;14.30;99.90
13494;DHT22;6819;50.886;4.332;2024-02-16T04:19:27;14.40;99.90
13494;DHT22;6819;50.886;4.332;2024-02-16T04:21:52;14.40;99.90
13494;DHT22;6819;50.886;4.332;2024-02-16T04:24:18;14.40;99.90
13494;DHT22;6819;50.886;4.332;2024-02-16T04:26:44;14.40;99.90
13494;DHT22;6819;50.886;4.332;2024-02-16T04:29:09;14.40;99.90
13494;DHT22;6819;50.886;4.332;2024-02-16T04:31:39;14.40;99.90
13494;DHT22;6819;50.886;4.332;2024-02-16T04:34:05;14.40;99.90
13494;DHT22;6819;50.886;4.332;2024-02-16T04:36:30;14.40;99.90
13494;DHT22;6819;50.886;4.332;2024-02-16T04:38:56;14.40;99.90
13494;DHT22;6819;50.886;4.332;2024-02-16T04:41:22;14.40;99.90
13494;DHT22;6819;50.886;4.332;2024-02-16T04:43:47;14.40;99.90
13494;DHT22;6819;50.886;4.332;2024-02-16T04:46:16;14.40;99.90
13494;DHT22;6819;50.886;4.332;2024-02-16T04:48:43;14.40;99.90
13494;DHT22;6819;50.886;4.332;2024-02-16T04:51:08;14.40;99.90
13494;DHT22;6819;50.886;4.332;2024-02-16T04:53:34;14.50;99.90
13494;DHT22;6819;50.886;4.332;2024-02-16T04:55:59;14.40;99.90
13494;DHT22;6819;50.886;4.332;2024-02-16T04:58:27;14.50;99.90
13494;DHT22;6819;50.886;4.332;2024-02-16T05:00:53;14.50;99.90
13494;DHT22;6819;50.886;4.332;2024-02-16T05:03:18;14.50;99.90
13494;DHT22;6819;50.886;4.332;2024-02-16T05:05:44;14.50;99.90
13494;DHT22;6819;50.886;4.332;2024-02-16T05:08:11;14.50;99.90
13494;DHT22;6819;50.886;4.332;2024-02-16T05:10:36;14.40;99.90
13494;DHT22;6819;50.886;4.332;2024-02-16T05:13:03;14.50;99.90
13494;DHT22;6819;50.886;4.332;2024-02-16T05:15:29;14.40;99.90
13494;DHT22;6819;50.886;4.332;2024-02-16T05:17:54;14.50;99.90
13494;DHT22;6819;50.886;4.332;2024-02-16T05:20:20;14.50;99.90
13494;DHT22;6819;50.886;4.332;2024-02-16T05:22:46;14.50;99.90
13494;DHT22;6819;50.886;4.332;2024-02-16T05:25:13;14.50;99.90
13494;DHT22;6819;50.886;4.332;2024-02-16T05:27:39;14.50;99.90
13494;DHT22;6819;50.886;4.332;2024-02-16T05:30:05;14.50;99.90
13494;DHT22;6819;50.886;4.332;2024-02-16T05:32:36;14.50;99.90
13494;DHT22;6819;50.886;4.332;2024-02-16T05:35:07;14.50;99.90
13494;DHT22;6819;50.886;4.332;2024-02-16T05:37:46;14.50;99.90
13494;DHT22;6819;50.886;4.332;2024-02-16T05:40:17;14.50;99.90
13494;DHT22;6819;50.886;4.332;2024-02-16T05:42:56;14.50;99.90
13494;DHT22;6819;50.886;4.332;2024-02-16T05:45:25;14.50;99.90
13494;DHT22;6819;50.886;4.332;2024-02-16T05:47:54;14.50;99.90
13494;DHT22;6819;50.886;4.332;2024-02-16T05:50:20;14.50;99.90
13494;DHT22;6819;50.886;4.332;2024-02-16T05:52:47;14.50;99.90
13494;DHT22;6819;50.886;4.332;2024-02-16T05:55:14;14.40;99.90
13494;DHT22;6819;50.886;4.332;2024-02-16T05:57:39;14.40;99.90
13494;DHT22;6819;50.886;4.332;2024-02-16T06:00:07;14.40;99.90
13494;DHT22;6819;50.886;4.332;2024-02-16T06:02:34;14.40;99.90
13494;DHT22;6819;50.886;4.332;2024-02-16T06:05:01;14.40;99.90
13494;DHT22;6819;50.886;4.332;2024-02-16T06:07:28;14.40;99.90
13494;DHT22;6819;50.886;4.332;2024-02-16T06:09:57;14.40;99.90
13494;DHT22;6819;50.886;4.332;2024-02-16T06:12:23;14.40;99.90
13494;DHT22;6819;50.886;4.332;2024-02-16T06:14:48;14.30;99.90
13494;DHT22;6819;50.886;4.332;2024-02-16T06:17:15;14.30;99.90
13494;DHT22;6819;50.886;4.332;2024-02-16T06:19:41;14.30;99.90
13494;DHT22;6819;50.886;4.332;2024-02-16T06:22:07;14.20;99.90
13494;DHT22;6819;50.886;4.332;2024-02-16T06:24:34;14.30;99.90
13494;DHT22;6819;50.886;4.332;2024-02-16T06:26:59;14.20;99.90
13494;DHT22;6819;50.886;4.332;2024-02-16T06:29:25;14.20;99.90
13494;DHT22;6819;50.886;4.332;2024-02-16T06:31:51;14.20;99.90
13494;DHT22;6819;50.886;4.332;2024-02-16T06:34:18;14.10;99.90
13494;DHT22;6819;50.886;4.332;2024-02-16T06:36:43;14.10;99.90
13494;DHT22;6819;50.886;4.332;2024-02-16T06:39:10;14.00;99.90
13494;DHT22;6819;50.886;4.332;2024-02-16T06:41:36;14.00;99.90
13494;DHT22;6819;50.886;4.332;2024-02-16T06:44:03;13.90;99.90
13494;DHT22;6819;50.886;4.332;2024-02-16T06:46:29;13.90;99.90
13494;DHT22;6819;50.886;4.332;2024-02-16T06:48:55;13.80;99.90
13494;DHT22;6819;50.886;4.332;2024-02-16T06:51:24;13.80;99.90
13494;DHT22;6819;50.886;4.332;2024-02-16T06:53:52;13.80;99.90
13494;DHT22;6819;50.886;4.332;2024-02-16T06:56:18;13.80;99.90
13494;DHT22;6819;50.886;4.332;2024-02-16T06:58:46;13.80;99.90
13494;DHT22;6819;50.886;4.332;2024-02-16T07:01:16;13.70;99.90
13494;DHT22;6819;50.886;4.332;2024-02-16T07:03:43;13.70;99.90
13494;DHT22;6819;50.886;4.332;2024-02-16T07:06:09;13.60;99.90
13494;DHT22;6819;50.886;4.332;2024-02-16T07:08:36;13.50;99.90
13494;DHT22;6819;50.886;4.332;2024-02-16T07:11:03;13.60;99.90
13494;DHT22;6819;50.886;4.332;2024-02-16T07:13:33;13.60;99.90
13494;DHT22;6819;50.886;4.332;2024-02-16T07:15:59;13.50;99.90
13494;DHT22;6819;50.886;4.332;2024-02-16T07:18:25;13.60;99.90
13494;DHT22;6819;50.886;4.332;2024-02-16T07:20:51;13.60;99.90
13494;DHT22;6819;50.886;4.332;2024-02-16T07:23:16;13.50;99.90
13494;DHT22;6819;50.886;4.332;2024-02-16T07:25:43;13.60;99.90
13494;DHT22;6819;50.886;4.332;2024-02-16T07:28:08;13.60;99.90
13494;DHT22;6819;50.886;4.332;2024-02-16T07:30:36;13.60;99.90
13494;DHT22;6819;50.886;4.332;2024-02-16T07:33:05;13.60;99.90
13494;DHT22;6819;50.886;4.332;2024-02-16T07:35:32;13.60;99.90
13494;DHT22;6819;50.886;4.332;2024-02-16T07:37:58;13.50;99.90
13494;DHT22;6819;50.886;4.332;2024-02-16T07:40:24;13.50;99.90
13494;DHT22;6819;50.886;4.332;2024-02-16T07:42:49;13.50;99.90
13494;DHT22;6819;50.886;4.332;2024-02-16T07:45:15;13.50;99.90
13494;DHT22;6819;50.886;4.332;2024-02-16T07:47:41;13.50;99.90
13494;DHT22;6819;50.886;4.332;2024-02-16T07:50:07;13.50;99.90
13494;DHT22;6819;50.886;4.332;2024-02-16T07:52:33;13.50;99.90
13494;DHT22;6819;50.886;4.332;2024-02-16T07:54:58;13.60;99.90
13494;DHT22;6819;50.886;4.332;2024-02-16T07:57:24;13.60;99.90
13494;DHT22;6819;50.886;4.332;2024-02-16T07:59:50;13.60;99.90
13494;DHT22;6819;50.886;4.332;2024-02-16T08:02:16;13.70;99.90
13494;DHT22;6819;50.886;4.332;2024-02-16T08:04:46;13.70;99.90
13494;DHT22;6819;50.886;4.332;2024-02-16T08:07:12;13.70;99.90
13494;DHT22;6819;50.886;4.332;2024-02-16T08:09:37;13.70;99.90
13494;DHT22;6819;50.886;4.332;2024-02-16T08:12:03;13.70;99.90
13494;DHT22;6819;50.886;4.332;2024-02-16T08:14:32;13.70;99.90
13494;DHT22;6819;50.886;4.332;2024-02-16T08:16:58;13.70;99.90
13494;DHT22;6819;50.886;4.332;2024-02-16T08:19:32;13.80;99.90
13494;DHT22;6819;50.886;4.332;2024-02-16T08:21:59;13.70;99.90
13494;DHT22;6819;50.886;4.332;2024-02-16T08:24:25;13.80;99.90
13494;DHT22;6819;50.886;4.332;2024-02-16T08:26:51;13.80;99.90
13494;DHT22;6819;50.886;4.332;2024-02-16T08:29:16;13.80;99.90
13494;DHT22;6819;50.886;4.332;2024-02-16T08:31:42;13.80;99.90
13494;DHT22;6819;50.886;4.332;2024-02-16T08:34:09;13.80;99.90
13494;DHT22;6819;50.886;4.332;2024-02-16T08:36:36;13.80;99.90
13494;DHT22;6819;50.886;4.332;2024-02-16T08:39:03;13.80;99.90
13494;DHT22;6819;50.886;4.332;2024-02-16T08:41:29;13.80;99.90
13494;DHT22;6819;50.886;4.332;2024-02-16T08:43:54;13.70;99.90
13494;DHT22;6819;50.886;4.332;2024-02-16T08:46:22;13.60;99.90
13494;DHT22;6819;50.886;4.332;2024-02-16T08:48:48;13.60;99.90
13494;DHT22;6819;50.886;4.332;2024-02-16T08:51:14;13.60;99.90
13494;DHT22;6819;50.886;4.332;2024-02-16T08:53:40;13.60;99.90
13494;DHT22;6819;50.886;4.332;2024-02-16T08:56:14;13.60;99.90
13494;DHT22;6819;50.886;4.332;2024-02-16T08:58:41;13.50;99.90
13494;DHT22;6819;50.886;4.332;2024-02-16T09:01:06;13.50;99.90
13494;DHT22;6819;50.886;4.332;2024-02-16T09:03:32;13.50;99.90
13494;DHT22;6819;50.886;4.332;2024-02-16T09:06:02;13.50;99.90
13494;DHT22;6819;50.886;4.332;2024-02-16T09:08:28;13.50;99.90
13494;DHT22;6819;50.886;4.332;2024-02-16T09:11:02;13.50;99.90
13494;DHT22;6819;50.886;4.332;2024-02-16T09:13:32;13.40;99.90
13494;DHT22;6819;50.886;4.332;2024-02-16T09:15:58;13.40;99.90
13494;DHT22;6819;50.886;4.332;2024-02-16T09:18:23;13.30;99.90
13494;DHT22;6819;50.886;4.332;2024-02-16T09:20:49;13.30;99.90
13494;DHT22;6819;50.886;4.332;2024-02-16T09:23:15;13.30;99.90
13494;DHT22;6819;50.886;4.332;2024-02-16T09:25:40;13.20;99.90
13494;DHT22;6819;50.886;4.332;2024-02-16T09:28:06;13.20;99.90
13494;DHT22;6819;50.886;4.332;2024-02-16T09:30:32;13.20;99.90
13494;DHT22;6819;50.886;4.332;2024-02-16T09:32:58;13.20;99.90
13494;DHT22;6819;50.886;4.332;2024-02-16T09:35:24;13.20;99.90
13494;DHT22;6819;50.886;4.332;2024-02-16T09:37:49;13.10;99.90
13494;DHT22;6819;50.886;4.332;2024-02-16T09:40:15;13.20;99.90
13494;DHT22;6819;50.886;4.332;2024-02-16T09:42:48;13.20;99.90
13494;DHT22;6819;50.886;4.332;2024-02-16T09:45:15;13.20;99.90
13494;DHT22;6819;50.886;4.332;2024-02-16T09:47:43;13.20;99.90
13494;DHT22;6819;50.886;4.332;2024-02-16T09:50:09;13.20;99.90
13494;DHT22;6819;50.886;4.332;2024-02-16T09:52:36;13.20;99.90
13494;DHT22;6819;50.886;4.332;2024-02-16T09:55:02;13.20;99.90
13494;DHT22;6819;50.886;4.332;2024-02-16T09:57:28;13.20;99.90
13494;DHT22;6819;50.886;4.332;2024-02-16T09:59:53;13.20;99.90
13494;DHT22;6819;50.886;4.332;2024-02-16T10:02:19;13.30;99.90
13494;DHT22;6819;50.886;4.332;2024-02-16T10:04:45;13.30;99.90
13494;DHT22;6819;50.886;4.332;2024-02-16T10:07:10;13.20;99.90
13494;DHT22;6819;50.886;4.332;2024-02-16T10:09:36;13.30;99.90
13494;DHT22;6819;50.886;4.332;2024-02-16T10:12:02;13.30;99.90
13494;DHT22;6819;50.886;4.332;2024-02-16T10:14:27;13.30;99.90
13494;DHT22;6819;50.886;4.332;2024-02-16T10:17:05;13.40;99.90
13494;DHT22;6819;50.886;4.332;2024-02-16T10:19:32;13.30;99.90
13494;DHT22;6819;50.886;4.332;2024-02-16T10:22:11;13.40;99.90
13494;DHT22;6819;50.886;4.332;2024-02-16T10:24:38;13.40;99.90
13494;DHT22;6819;50.886;4.332;2024-02-16T10:27:17;13.40;99.90
13494;DHT22;6819;50.886;4.332;2024-02-16T10:29:50;13.40;99.90
13494;DHT22;6819;50.886;4.332;2024-02-16T10:32:18;13.40;99.90
13494;DHT22;6819;50.886;4.332;2024-02-16T10:34:46;13.40;99.90
13494;DHT22;6819;50.886;4.332;2024-02-16T10:37:13;13.50;99.90
13494;DHT22;6819;50.886;4.332;2024-02-16T10:39:41;13.40;99.90
13494;DHT22;6819;50.886;4.332;2024-02-16T10:42:08;13.40;99.90
13494;DHT22;6819;50.886;4.332;2024-02-16T10:44:35;13.40;99.90
13494;DHT22;6819;50.886;4.332;2024-02-16T10:47:01;13.40;99.90
13494;DHT22;6819;50.886;4.332;2024-02-16T10:49:27;13.40;99.90
13494;DHT22;6819;50.886;4.332;2024-02-16T10:51:55;13.40;99.90
13494;DHT22;6819;50.886;4.332;2024-02-16T10:54:26;13.40;99.90
13494;DHT22;6819;50.886;4.332;2024-02-16T10:56:54;13.40;99.90
13494;DHT22;6819;50.886;4.332;2024-02-16T10:59:20;13.40;99.90
13494;DHT22;6819;50.886;4.332;2024-02-16T11:01:45;13.40;99.90
13494;DHT22;6819;50.886;4.332;2024-02-16T11:04:13;13.40;99.90
13494;DHT22;6819;50.886;4.332;2024-02-16T11:09:23;13.50;99.90
13494;DHT22;6819;50.886;4.332;2024-02-16T11:12:15;13.40;99.90
13494;DHT22;6819;50.886;4.332;2024-02-16T11:14:45;13.40;99.90
13494;DHT22;6819;50.886;4.332;2024-02-16T11:17:12;13.40;99.90
13494;DHT22;6819;50.886;4.332;2024-02-16T11:19:45;13.40;99.90
13494;DHT22;6819;50.886;4.332;2024-02-16T11:22:15;13.30;99.90
13494;DHT22;6819;50.886;4.332;2024-02-16T11:24:49;13.30;99.90
13494;DHT22;6819;50.886;4.332;2024-02-16T11:27:16;13.20;99.90
13494;DHT22;6819;50.886;4.332;2024-02-16T11:29:45;13.20;99.90
13494;DHT22;6819;50.886;4.332;2024-02-16T11:32:11;13.20;99.90
13494;DHT22;6819;50.886;4.332;2024-02-16T11:34:37;13.20;99.90
13494;DHT22;6819;50.886;4.332;2024-02-16T11:37:06;13.10;99.90
13494;DHT22;6819;50.886;4.332;2024-02-16T11:39:32;13.10;99.90
13494;DHT22;6819;50.886;4.332;2024-02-16T11:42:08;13.10;99.90
13494;DHT22;6819;50.886;4.332;2024-02-16T11:44:36;13.10;99.90
13494;DHT22;6819;50.886;4.332;2024-02-16T11:47:06;13.10;99.90
13494;DHT22;6819;50.886;4.332;2024-02-16T11:49:38;13.00;99.90
13494;DHT22;6819;50.886;4.332;2024-02-16T11:52:05;13.10;99.90
13494;DHT22;6819;50.886;4.332;2024-02-16T11:54:30;13.10;99.90
13494;DHT22;6819;50.886;4.332;2024-02-16T11:56:57;13.00;99.90
13494;DHT22;6819;50.886;4.332;2024-02-16T11:59:23;13.00;99.90
13494;DHT22;6819;50.886;4.332;2024-02-16T12:01:56;13.10;99.90
13494;DHT22;6819;50.886;4.332;2024-02-16T12:04:26;13.00;99.90
13494;DHT22;6819;50.886;4.332;2024-02-16T12:06:59;13.00;99.90
13494;DHT22;6819;50.886;4.332;2024-02-16T12:09:25;13.00;99.90
13494;DHT22;6819;50.886;4.332;2024-02-16T12:11:52;12.90;99.90
13494;DHT22;6819;50.886;4.332;2024-02-16T12:14:19;12.90;99.90
13494;DHT22;6819;50.886;4.332;2024-02-16T12:16:51;12.90;99.90
13494;DHT22;6819;50.886;4.332;2024-02-16T12:19:20;12.90;99.90
13494;DHT22;6819;50.886;4.332;2024-02-16T12:21:55;12.90;99.90
13494;DHT22;6819;50.886;4.332;2024-02-16T12:24:24;12.90;99.90
13494;DHT22;6819;50.886;4.332;2024-02-16T12:26:50;12.80;99.90
13494;DHT22;6819;50.886;4.332;2024-02-16T12:29:16;12.80;99.90
13494;DHT22;6819;50.886;4.332;2024-02-16T12:31:44;12.80;99.90
13494;DHT22;6819;50.886;4.332;2024-02-16T12:34:10;12.80;99.90
13494;DHT22;6819;50.886;4.332;2024-02-16T12:36:39;12.80;99.90
13494;DHT22;6819;50.886;4.332;2024-02-16T12:39:05;12.80;99.90
13494;DHT22;6819;50.886;4.332;2024-02-16T12:41:34;12.80;99.90
13494;DHT22;6819;50.886;4.332;2024-02-16T12:44:01;12.80;99.90
13494;DHT22;6819;50.886;4.332;2024-02-16T12:46:27;12.80;99.90
13494;DHT22;6819;50.886;4.332;2024-02-16T12:48:56;12.70;99.90
13494;DHT22;6819;50.886;4.332;2024-02-16T12:51:22;12.70;99.90
13494;DHT22;6819;50.886;4.332;2024-02-16T12:53:48;12.70;99.90
13494;DHT22;6819;50.886;4.332;2024-02-16T12:56:14;12.70;99.90
13494;DHT22;6819;50.886;4.332;2024-02-16T12:58:39;12.80;99.90
13494;DHT22;6819;50.886;4.332;2024-02-16T13:01:06;12.70;99.90
13494;DHT22;6819;50.886;4.332;2024-02-16T13:03:35;12.70;99.90
13494;DHT22;6819;50.886;4.332;2024-02-16T13:06:02;12.70;99.90
13494;DHT22;6819;50.886;4.332;2024-02-16T13:08:28;12.70;99.90
13494;DHT22;6819;50.886;4.332;2024-02-16T13:10:54;12.70;99.90
13494;DHT22;6819;50.886;4.332;2024-02-16T13:13:20;12.70;99.90
13494;DHT22;6819;50.886;4.332;2024-02-16T13:15:48;12.70;99.90
13494;DHT22;6819;50.886;4.332;2024-02-16T13:18:14;12.70;99.90
13494;DHT22;6819;50.886;4.332;2024-02-16T13:20:40;12.70;99.90
13494;DHT22;6819;50.886;4.332;2024-02-16T13:23:06;12.80;99.90
13494;DHT22;6819;50.886;4.332;2024-02-16T13:25:31;12.80;99.90
13494;DHT22;6819;50.886;4.332;2024-02-16T13:27:57;12.80;99.90
13494;DHT22;6819;50.886;4.332;2024-02-16T13:30:25;12.80;99.90
13494;DHT22;6819;50.886;4.332;2024-02-16T13:32:50;12.80;99.90
13494;DHT22;6819;50.886;4.332;2024-02-16T13:35:16;12.70;99.90
13494;DHT22;6819;50.886;4.332;2024-02-16T13:37:42;12.80;99.90
13494;DHT22;6819;50.886;4.332;2024-02-16T13:40:08;12.80;99.90
13494;DHT22;6819;50.886;4.332;2024-02-16T13:42:38;12.90;99.90
13494;DHT22;6819;50.886;4.332;2024-02-16T13:45:04;12.90;99.90
13494;DHT22;6819;50.886;4.332;2024-02-16T13:47:30;12.90;99.90
13494;DHT22;6819;50.886;4.332;2024-02-16T13:49:56;13.00;99.90
13494;DHT22;6819;50.886;4.332;2024-02-16T13:52:23;13.00;99.90
13494;DHT22;6819;50.886;4.332;2024-02-16T13:54:49;13.10;99.90
13494;DHT22;6819;50.886;4.332;2024-02-16T13:57:15;13.10;99.90
13494;DHT22;6819;50.886;4.332;2024-02-16T13:59:42;13.30;99.90
13494;DHT22;6819;50.886;4.332;2024-02-16T14:02:07;13.30;99.90
13494;DHT22;6819;50.886;4.332;2024-02-16T14:04:33;13.30;99.90
13494;DHT22;6819;50.886;4.332;2024-02-16T14:06:59;13.40;99.90
13494;DHT22;6819;50.886;4.332;2024-02-16T14:09:25;13.40;99.90
13494;DHT22;6819;50.886;4.332;2024-02-16T14:11:52;13.40;99.90
13494;DHT22;6819;50.886;4.332;2024-02-16T14:14:19;13.40;99.90
13494;DHT22;6819;50.886;4.332;2024-02-16T14:16:45;13.40;99.90
13494;DHT22;6819;50.886;4.332;2024-02-16T14:19:11;13.40;99.90
13494;DHT22;6819;50.886;4.332;2024-02-16T14:21:36;13.40;99.90
13494;DHT22;6819;50.886;4.332;2024-02-16T14:24:02;13.40;99.90
13494;DHT22;6819;50.886;4.332;2024-02-16T14:26:28;13.30;99.90
13494;DHT22;6819;50.886;4.332;2024-02-16T14:28:54;13.40;99.90
13494;DHT22;6819;50.886;4.332;2024-02-16T14:31:21;13.40;99.90
13494;DHT22;6819;50.886;4.332;2024-02-16T14:33:48;13.50;99.90
13494;DHT22;6819;50.886;4.332;2024-02-16T14:36:14;13.60;99.90
13494;DHT22;6819;50.886;4.332;2024-02-16T14:38:40;13.60;99.90
13494;DHT22;6819;50.886;4.332;2024-02-16T14:41:05;13.60;99.90
13494;DHT22;6819;50.886;4.332;2024-02-16T14:43:32;13.60;99.90
13494;DHT22;6819;50.886;4.332;2024-02-16T14:46:00;13.60;99.90
13494;DHT22;6819;50.886;4.332;2024-02-16T14:48:27;13.70;99.90
13494;DHT22;6819;50.886;4.332;2024-02-16T14:50:53;13.70;99.90
13494;DHT22;6819;50.886;4.332;2024-02-16T14:53:21;13.70;99.90
13494;DHT22;6819;50.886;4.332;2024-02-16T14:55:50;13.70;99.90
13494;DHT22;6819;50.886;4.332;2024-02-16T14:58:16;13.60;99.90
13494;DHT22;6819;50.886;4.332;2024-02-16T15:00:42;13.60;99.90
13494;DHT22;6819;50.886;4.332;2024-02-16T15:03:09;13.80;99.90
13494;DHT22;6819;50.886;4.332;2024-02-16T15:05:35;13.80;99.90
13494;DHT22;6819;50.886;4.332;2024-02-16T15:08:02;13.90;99.90
13494;DHT22;6819;50.886;4.332;2024-02-16T15:10:28;13.80;99.90
13494;DHT22;6819;50.886;4.332;2024-02-16T15:12:54;13.70;99.90
13494;DHT22;6819;50.886;4.332;2024-02-16T15:15:19;13.70;99.90
13494;DHT22;6819;50.886;4.332;2024-02-16T15:17:45;13.60;99.90
13494;DHT22;6819;50.886;4.332;2024-02-16T15:20:11;13.60;99.90
13494;DHT22;6819;50.886;4.332;2024-02-16T15:22:36;13.50;99.90
13494;DHT22;6819;50.886;4.332;2024-02-16T15:25:03;13.50;99.90
13494;DHT22;6819;50.886;4.332;2024-02-16T15:27:28;13.50;99.90
13494;DHT22;6819;50.886;4.332;2024-02-16T15:29:54;13.40;99.90
13494;DHT22;6819;50.886;4.332;2024-02-16T15:32:20;13.40;99.90
13494;DHT22;6819;50.886;4.332;2024-02-16T15:34:46;13.40;99.90
13494;DHT22;6819;50.886;4.332;2024-02-16T15:37:14;13.40;99.90
13494;DHT22;6819;50.886;4.332;2024-02-16T15:39:40;13.40;99.90
13494;DHT22;6819;50.886;4.332;2024-02-16T15:42:06;13.40;99.90
13494;DHT22;6819;50.886;4.332;2024-02-16T15:44:37;13.40;99.90